sensor_id;sensor_type;location;lat;lon;timestamp;temperature;humidity
75964;DHT22;65820;44.726;37.764;2022-12-20T00:05:46;18.52;42.63
75964;DHT22;65820;44.726;37.764;2022-12-20T00:16:19;18.51;42.58
75964;DHT22;65820;44.726;37.764;2022-12-20T00:38:59;18.47;42.84
75964;DHT22;65820;44.726;37.764;2022-12-20T01:06:04;18.44;42.62
75964;DHT22;65820;44.726;37.764;2022-12-20T01:21:03;18.42;42.82
75964;DHT22;65820;44.726;37.764;2022-12-20T01:22:05;18.42;42.78
75964;DHT22;65820;44.726;37.764;2022-12-20T01:23:06;18.42;42.74
75964;DHT22;65820;44.726;37.764;2022-12-20T01:24:08;18.42;42.71
75964;DHT22;65820;44.726;37.764;2022-12-20T01:35:37;18.41;42.81
75964;DHT22;65820;44.726;37.764;2022-12-20T02:08:27;18.35;42.81
75964;DHT22;65820;44.726;37.764;2022-12-20T02:09:31;18.36;42.89
75964;DHT22;65820;44.726;37.764;2022-12-20T16:52:52;17.67;44.13
75964;DHT22;65820;44.726;37.764;2022-12-20T16:54:02;17.68;44.12
75964;DHT22;65820;44.726;37.764;2022-12-20T16:55:14;17.70;43.87
75964;DHT22;65820;44.726;37.764;2022-12-20T16:56:21;17.72;43.63
75964;DHT22;65820;44.726;37.764;2022-12-20T16:57:28;17.73;43.64
75964;DHT22;65820;44.726;37.764;2022-12-20T16:58:35;17.76;43.39
75964;DHT22;65820;44.726;37.764;2022-12-20T16:59:41;17.77;44.43
75964;DHT22;65820;44.726;37.764;2022-12-20T17:00:48;17.80;43.57
75964;DHT22;65820;44.726;37.764;2022-12-20T17:01:56;17.81;43.39
75964;DHT22;65820;44.726;37.764;2022-12-20T17:03:02;17.83;43.39
75964;DHT22;65820;44.726;37.764;2022-12-20T17:04:13;17.87;43.25
75964;DHT22;65820;44.726;37.764;2022-12-20T17:05:30;17.90;43.05
75964;DHT22;65820;44.726;37.764;2022-12-20T17:06:37;17.92;43.01
75964;DHT22;65820;44.726;37.764;2022-12-20T17:07:45;17.95;42.89
75964;DHT22;65820;44.726;37.764;2022-12-20T17:08:52;17.97;42.84
75964;DHT22;65820;44.726;37.764;2022-12-20T17:09:58;17.99;42.65
75964;DHT22;65820;44.726;37.764;2022-12-20T17:11:24;18.02;42.61
75964;DHT22;65820;44.726;37.764;2022-12-20T17:12:31;18.05;42.47
75964;DHT22;65820;44.726;37.764;2022-12-20T17:13:38;18.06;42.37
75964;DHT22;65820;44.726;37.764;2022-12-20T17:14:45;18.09;42.28
75964;DHT22;65820;44.726;37.764;2022-12-20T17:15:52;18.10;42.24
75964;DHT22;65820;44.726;37.764;2022-12-20T17:16:59;18.12;42.29
75964;DHT22;65820;44.726;37.764;2022-12-20T17:18:05;18.12;42.23
75964;DHT22;65820;44.726;37.764;2022-12-20T17:19:12;18.13;42.16
75964;DHT22;65820;44.726;37.764;2022-12-20T17:20:20;18.17;42.10
75964;DHT22;65820;44.726;37.764;2022-12-20T17:21:47;18.21;43.33
75964;DHT22;65820;44.726;37.764;2022-12-20T17:22:54;18.23;43.15
75964;DHT22;65820;44.726;37.764;2022-12-20T17:24:02;18.24;42.23
75964;DHT22;65820;44.726;37.764;2022-12-20T17:25:29;18.26;42.70
75964;DHT22;65820;44.726;37.764;2022-12-20T17:26:36;18.27;42.25
75964;DHT22;65820;44.726;37.764;2022-12-20T17:27:42;18.28;42.65
75964;DHT22;65820;44.726;37.764;2022-12-20T17:28:50;18.32;42.81
75964;DHT22;65820;44.726;37.764;2022-12-20T17:29:56;18.33;42.68
75964;DHT22;65820;44.726;37.764;2022-12-20T17:31:16;18.35;42.52
75964;DHT22;65820;44.726;37.764;2022-12-20T17:32:26;18.37;42.69
75964;DHT22;65820;44.726;37.764;2022-12-20T17:33:33;18.38;42.61
75964;DHT22;65820;44.726;37.764;2022-12-20T17:34:39;18.39;42.39
75964;DHT22;65820;44.726;37.764;2022-12-20T17:35:46;18.41;42.48
75964;DHT22;65820;44.726;37.764;2022-12-20T17:36:54;18.42;42.09
75964;DHT22;65820;44.726;37.764;2022-12-20T17:38:01;18.41;42.07
75964;DHT22;65820;44.726;37.764;2022-12-20T17:39:12;18.42;42.01
75964;DHT22;65820;44.726;37.764;2022-12-20T17:40:19;18.42;41.94
75964;DHT22;65820;44.726;37.764;2022-12-20T17:41:28;18.41;41.85
75964;DHT22;65820;44.726;37.764;2022-12-20T17:42:35;18.41;41.78
75964;DHT22;65820;44.726;37.764;2022-12-20T17:43:42;18.42;41.74
75964;DHT22;65820;44.726;37.764;2022-12-20T17:44:49;18.41;41.70
75964;DHT22;65820;44.726;37.764;2022-12-20T17:45:55;18.42;41.71
75964;DHT22;65820;44.726;37.764;2022-12-20T17:47:02;18.42;41.65
75964;DHT22;65820;44.726;37.764;2022-12-20T17:48:08;18.42;41.62
75964;DHT22;65820;44.726;37.764;2022-12-20T17:49:15;18.42;41.58
75964;DHT22;65820;44.726;37.764;2022-12-20T17:50:22;18.42;41.57
75964;DHT22;65820;44.726;37.764;2022-12-20T17:51:29;18.41;41.59
75964;DHT22;65820;44.726;37.764;2022-12-20T17:52:36;18.41;41.63
75964;DHT22;65820;44.726;37.764;2022-12-20T17:53:46;18.41;41.49
75964;DHT22;65820;44.726;37.764;2022-12-20T17:54:54;18.41;41.45
75964;DHT22;65820;44.726;37.764;2022-12-20T17:56:01;18.40;41.44
75964;DHT22;65820;44.726;37.764;2022-12-20T17:57:15;18.42;41.37
75964;DHT22;65820;44.726;37.764;2022-12-20T17:58:21;18.40;41.51
75964;DHT22;65820;44.726;37.764;2022-12-20T17:59:28;18.40;41.51
75964;DHT22;65820;44.726;37.764;2022-12-20T18:00:35;18.41;41.34
75964;DHT22;65820;44.726;37.764;2022-12-20T18:01:42;18.41;41.39
75964;DHT22;65820;44.726;37.764;2022-12-20T18:02:50;18.42;41.68
75964;DHT22;65820;44.726;37.764;2022-12-20T18:03:58;18.41;41.39
75964;DHT22;65820;44.726;37.764;2022-12-20T18:05:05;18.42;41.70
75964;DHT22;65820;44.726;37.764;2022-12-20T18:06:16;18.42;41.37
75964;DHT22;65820;44.726;37.764;2022-12-20T18:07:22;18.43;41.41
75964;DHT22;65820;44.726;37.764;2022-12-20T18:08:29;18.42;41.48
75964;DHT22;65820;44.726;37.764;2022-12-20T18:09:35;18.42;41.24
75964;DHT22;65820;44.726;37.764;2022-12-20T18:10:42;18.43;42.57
75964;DHT22;65820;44.726;37.764;2022-12-20T18:11:51;18.42;41.67
75964;DHT22;65820;44.726;37.764;2022-12-20T18:12:57;18.42;41.38
75964;DHT22;65820;44.726;37.764;2022-12-20T18:14:04;18.41;41.29
75964;DHT22;65820;44.726;37.764;2022-12-20T18:15:11;18.42;41.63
75964;DHT22;65820;44.726;37.764;2022-12-20T18:16:20;18.42;41.84
75964;DHT22;65820;44.726;37.764;2022-12-20T18:17:27;18.43;41.33
75964;DHT22;65820;44.726;37.764;2022-12-20T18:18:33;18.43;41.47
75964;DHT22;65820;44.726;37.764;2022-12-20T18:19:43;18.41;41.45
75964;DHT22;65820;44.726;37.764;2022-12-20T18:21:00;18.41;41.53
75964;DHT22;65820;44.726;37.764;2022-12-20T18:22:07;18.42;41.42
75964;DHT22;65820;44.726;37.764;2022-12-20T18:23:13;18.40;41.42
75964;DHT22;65820;44.726;37.764;2022-12-20T18:24:20;18.40;41.46
75964;DHT22;65820;44.726;37.764;2022-12-20T18:25:27;18.40;41.45
75964;DHT22;65820;44.726;37.764;2022-12-20T18:26:35;18.39;41.54
75964;DHT22;65820;44.726;37.764;2022-12-20T18:27:42;18.39;41.46
75964;DHT22;65820;44.726;37.764;2022-12-20T18:28:51;18.38;41.45
75964;DHT22;65820;44.726;37.764;2022-12-20T18:29:58;18.39;41.49
75964;DHT22;65820;44.726;37.764;2022-12-20T18:31:07;18.38;41.26
75964;DHT22;65820;44.726;37.764;2022-12-20T18:32:13;18.37;41.17
75964;DHT22;65820;44.726;37.764;2022-12-20T18:33:20;18.39;41.39
75964;DHT22;65820;44.726;37.764;2022-12-20T18:34:26;18.37;41.29
75964;DHT22;65820;44.726;37.764;2022-12-20T18:35:33;18.39;41.27
75964;DHT22;65820;44.726;37.764;2022-12-20T18:36:40;18.37;41.31
75964;DHT22;65820;44.726;37.764;2022-12-20T18:37:46;18.37;41.20
75964;DHT22;65820;44.726;37.764;2022-12-20T18:38:53;18.37;41.31
75964;DHT22;65820;44.726;37.764;2022-12-20T18:40:00;18.38;41.15
75964;DHT22;65820;44.726;37.764;2022-12-20T18:41:11;18.37;41.29
75964;DHT22;65820;44.726;37.764;2022-12-20T18:42:18;18.37;41.38
75964;DHT22;65820;44.726;37.764;2022-12-20T18:43:25;18.38;41.36
75964;DHT22;65820;44.726;37.764;2022-12-20T18:44:31;18.38;41.36
75964;DHT22;65820;44.726;37.764;2022-12-20T18:45:40;18.37;41.39
75964;DHT22;65820;44.726;37.764;2022-12-20T18:46:47;18.38;42.19
75964;DHT22;65820;44.726;37.764;2022-12-20T18:47:54;18.38;41.22
75964;DHT22;65820;44.726;37.764;2022-12-20T18:49:01;18.37;41.37
75964;DHT22;65820;44.726;37.764;2022-12-20T18:50:08;18.38;41.52
75964;DHT22;65820;44.726;37.764;2022-12-20T18:51:22;18.37;41.53
75964;DHT22;65820;44.726;37.764;2022-12-20T18:52:28;18.37;41.55
75964;DHT22;65820;44.726;37.764;2022-12-20T18:53:36;18.37;41.54
75964;DHT22;65820;44.726;37.764;2022-12-20T18:54:42;18.38;41.42
75964;DHT22;65820;44.726;37.764;2022-12-20T18:55:49;18.36;41.44
75964;DHT22;65820;44.726;37.764;2022-12-20T18:56:56;18.37;41.50
75964;DHT22;65820;44.726;37.764;2022-12-20T18:58:03;18.37;41.53
75964;DHT22;65820;44.726;37.764;2022-12-20T18:59:10;18.37;41.50
75964;DHT22;65820;44.726;37.764;2022-12-20T19:00:17;18.38;41.58
75964;DHT22;65820;44.726;37.764;2022-12-20T19:01:27;18.38;41.58
75964;DHT22;65820;44.726;37.764;2022-12-20T19:02:34;18.38;41.62
75964;DHT22;65820;44.726;37.764;2022-12-20T19:03:41;18.38;41.62
75964;DHT22;65820;44.726;37.764;2022-12-20T19:04:48;18.38;41.56
75964;DHT22;65820;44.726;37.764;2022-12-20T19:05:55;18.39;41.67
75964;DHT22;65820;44.726;37.764;2022-12-20T19:07:02;18.38;41.76
75964;DHT22;65820;44.726;37.764;2022-12-20T19:08:09;18.38;41.71
75964;DHT22;65820;44.726;37.764;2022-12-20T19:09:15;18.40;42.00
75964;DHT22;65820;44.726;37.764;2022-12-20T19:10:22;18.39;41.82
75964;DHT22;65820;44.726;37.764;2022-12-20T19:11:29;18.41;41.84
75964;DHT22;65820;44.726;37.764;2022-12-20T19:12:35;18.40;41.81
75964;DHT22;65820;44.726;37.764;2022-12-20T19:13:42;18.39;41.78
75964;DHT22;65820;44.726;37.764;2022-12-20T19:14:49;18.40;41.75
75964;DHT22;65820;44.726;37.764;2022-12-20T19:16:17;18.40;41.84
75964;DHT22;65820;44.726;37.764;2022-12-20T19:17:23;18.40;41.84
75964;DHT22;65820;44.726;37.764;2022-12-20T19:18:30;18.40;41.84
75964;DHT22;65820;44.726;37.764;2022-12-20T19:19:37;18.40;41.81
75964;DHT22;65820;44.726;37.764;2022-12-20T19:20:43;18.40;41.95
75964;DHT22;65820;44.726;37.764;2022-12-20T19:21:50;18.39;41.81
75964;DHT22;65820;44.726;37.764;2022-12-20T19:22:56;18.40;41.89
75964;DHT22;65820;44.726;37.764;2022-12-20T19:24:04;18.41;41.84
75964;DHT22;65820;44.726;37.764;2022-12-20T19:25:12;18.41;41.79
75964;DHT22;65820;44.726;37.764;2022-12-20T19:26:19;18.41;42.48
75964;DHT22;65820;44.726;37.764;2022-12-20T19:27:26;18.41;41.94
75964;DHT22;65820;44.726;37.764;2022-12-20T19:28:34;18.40;41.95
75964;DHT22;65820;44.726;37.764;2022-12-20T19:29:41;18.40;41.90
75964;DHT22;65820;44.726;37.764;2022-12-20T19:30:47;18.41;41.94
75964;DHT22;65820;44.726;37.764;2022-12-20T19:31:54;18.41;41.93
75964;DHT22;65820;44.726;37.764;2022-12-20T19:33:00;18.40;41.94
75964;DHT22;65820;44.726;37.764;2022-12-20T19:34:09;18.40;41.96
75964;DHT22;65820;44.726;37.764;2022-12-20T19:35:16;18.39;41.98
75964;DHT22;65820;44.726;37.764;2022-12-20T19:36:31;18.39;41.95
75964;DHT22;65820;44.726;37.764;2022-12-20T19:37:39;18.38;42.00
75964;DHT22;65820;44.726;37.764;2022-12-20T19:38:50;18.38;42.00
75964;DHT22;65820;44.726;37.764;2022-12-20T19:39:57;18.38;42.03
75964;DHT22;65820;44.726;37.764;2022-12-20T19:41:04;18.36;42.00
75964;DHT22;65820;44.726;37.764;2022-12-20T19:42:11;18.36;42.10
75964;DHT22;65820;44.726;37.764;2022-12-20T19:43:17;18.36;42.01
75964;DHT22;65820;44.726;37.764;2022-12-20T19:44:24;18.36;42.07
75964;DHT22;65820;44.726;37.764;2022-12-20T19:45:31;18.35;42.05
75964;DHT22;65820;44.726;37.764;2022-12-20T19:46:41;18.36;42.06
75964;DHT22;65820;44.726;37.764;2022-12-20T19:47:48;18.35;42.08
75964;DHT22;65820;44.726;37.764;2022-12-20T19:48:58;18.35;42.03
75964;DHT22;65820;44.726;37.764;2022-12-20T19:50:06;18.35;42.10
75964;DHT22;65820;44.726;37.764;2022-12-20T19:51:15;18.34;42.07
75964;DHT22;65820;44.726;37.764;2022-12-20T19:52:22;18.34;42.09
75964;DHT22;65820;44.726;37.764;2022-12-20T19:53:28;18.34;42.05
75964;DHT22;65820;44.726;37.764;2022-12-20T19:54:35;18.32;42.11
75964;DHT22;65820;44.726;37.764;2022-12-20T19:55:50;18.32;42.03
75964;DHT22;65820;44.726;37.764;2022-12-20T19:56:56;18.32;42.06
75964;DHT22;65820;44.726;37.764;2022-12-20T19:58:03;18.30;42.12
75964;DHT22;65820;44.726;37.764;2022-12-20T19:59:10;18.33;42.07
75964;DHT22;65820;44.726;37.764;2022-12-20T20:00:18;18.30;42.11
75964;DHT22;65820;44.726;37.764;2022-12-20T20:01:25;18.30;42.13
75964;DHT22;65820;44.726;37.764;2022-12-20T20:02:32;18.30;42.13
75964;DHT22;65820;44.726;37.764;2022-12-20T20:03:39;18.29;42.19
75964;DHT22;65820;44.726;37.764;2022-12-20T20:04:46;18.29;42.10
75964;DHT22;65820;44.726;37.764;2022-12-20T20:05:54;18.29;42.14
75964;DHT22;65820;44.726;37.764;2022-12-20T20:07:00;18.29;42.16
75964;DHT22;65820;44.726;37.764;2022-12-20T20:08:09;18.29;42.11
75964;DHT22;65820;44.726;37.764;2022-12-20T20:09:15;18.29;42.13
75964;DHT22;65820;44.726;37.764;2022-12-20T20:10:22;18.29;42.10
75964;DHT22;65820;44.726;37.764;2022-12-20T20:11:29;18.29;42.16
75964;DHT22;65820;44.726;37.764;2022-12-20T20:12:35;18.30;42.12
75964;DHT22;65820;44.726;37.764;2022-12-20T20:13:43;18.29;42.26
75964;DHT22;65820;44.726;37.764;2022-12-20T20:14:50;18.30;42.13
75964;DHT22;65820;44.726;37.764;2022-12-20T20:15:59;18.28;42.22
75964;DHT22;65820;44.726;37.764;2022-12-20T20:17:06;18.29;42.18
75964;DHT22;65820;44.726;37.764;2022-12-20T20:18:13;18.30;42.18
75964;DHT22;65820;44.726;37.764;2022-12-20T20:19:19;18.28;42.14
75964;DHT22;65820;44.726;37.764;2022-12-20T20:20:26;18.29;42.20
75964;DHT22;65820;44.726;37.764;2022-12-20T20:21:33;18.29;42.10
75964;DHT22;65820;44.726;37.764;2022-12-20T20:22:41;18.29;42.12
75964;DHT22;65820;44.726;37.764;2022-12-20T20:23:49;18.29;42.19
75964;DHT22;65820;44.726;37.764;2022-12-20T20:24:56;18.29;42.11
75964;DHT22;65820;44.726;37.764;2022-12-20T20:26:13;18.30;42.27
75964;DHT22;65820;44.726;37.764;2022-12-20T20:27:20;18.29;42.21
75964;DHT22;65820;44.726;37.764;2022-12-20T20:28:26;18.29;42.15
75964;DHT22;65820;44.726;37.764;2022-12-20T20:29:33;18.29;42.13
75964;DHT22;65820;44.726;37.764;2022-12-20T20:30:41;18.29;42.26
75964;DHT22;65820;44.726;37.764;2022-12-20T20:31:47;18.29;42.23
75964;DHT22;65820;44.726;37.764;2022-12-20T20:32:54;18.30;42.13
75964;DHT22;65820;44.726;37.764;2022-12-20T20:34:01;18.29;42.16
75964;DHT22;65820;44.726;37.764;2022-12-20T20:35:08;18.29;42.24
75964;DHT22;65820;44.726;37.764;2022-12-20T20:36:18;18.29;42.13
75964;DHT22;65820;44.726;37.764;2022-12-20T20:37:25;18.29;42.15
75964;DHT22;65820;44.726;37.764;2022-12-20T20:38:33;18.29;42.13
75964;DHT22;65820;44.726;37.764;2022-12-20T20:39:40;18.29;42.10
75964;DHT22;65820;44.726;37.764;2022-12-20T20:40:46;18.28;42.19
75964;DHT22;65820;44.726;37.764;2022-12-20T20:41:53;18.28;42.32
75964;DHT22;65820;44.726;37.764;2022-12-20T20:43:04;18.29;42.26
75964;DHT22;65820;44.726;37.764;2022-12-20T20:44:11;18.28;42.19
75964;DHT22;65820;44.726;37.764;2022-12-20T20:45:17;18.28;42.29
75964;DHT22;65820;44.726;37.764;2022-12-20T20:46:24;18.28;42.11
75964;DHT22;65820;44.726;37.764;2022-12-20T20:47:30;18.28;42.23
75964;DHT22;65820;44.726;37.764;2022-12-20T20:48:38;18.28;42.13
75964;DHT22;65820;44.726;37.764;2022-12-20T20:49:44;18.28;42.17
75964;DHT22;65820;44.726;37.764;2022-12-20T20:50:52;18.28;42.16
75964;DHT22;65820;44.726;37.764;2022-12-20T20:51:58;18.26;42.16
75964;DHT22;65820;44.726;37.764;2022-12-20T20:53:05;18.25;42.18
75964;DHT22;65820;44.726;37.764;2022-12-20T20:54:12;18.28;42.18
75964;DHT22;65820;44.726;37.764;2022-12-20T20:55:19;18.27;42.16
75964;DHT22;65820;44.726;37.764;2022-12-20T20:56:25;18.25;42.30
75964;DHT22;65820;44.726;37.764;2022-12-20T20:57:32;18.27;42.35
75964;DHT22;65820;44.726;37.764;2022-12-20T20:58:39;18.27;42.19
75964;DHT22;65820;44.726;37.764;2022-12-20T20:59:45;18.26;42.23
75964;DHT22;65820;44.726;37.764;2022-12-20T21:00:56;18.26;42.31
75964;DHT22;65820;44.726;37.764;2022-12-20T21:02:04;18.27;42.15
75964;DHT22;65820;44.726;37.764;2022-12-20T21:03:10;18.26;42.15
75964;DHT22;65820;44.726;37.764;2022-12-20T21:04:17;18.25;42.21
75964;DHT22;65820;44.726;37.764;2022-12-20T21:05:24;18.26;42.19
75964;DHT22;65820;44.726;37.764;2022-12-20T21:06:34;18.25;42.30
75964;DHT22;65820;44.726;37.764;2022-12-20T21:07:42;18.25;42.26
75964;DHT22;65820;44.726;37.764;2022-12-20T21:08:50;18.25;42.23
75964;DHT22;65820;44.726;37.764;2022-12-20T21:09:57;18.25;42.20
75964;DHT22;65820;44.726;37.764;2022-12-20T21:11:05;18.25;42.17
75964;DHT22;65820;44.726;37.764;2022-12-20T21:12:12;18.26;42.23
75964;DHT22;65820;44.726;37.764;2022-12-20T21:13:18;18.25;42.30
75964;DHT22;65820;44.726;37.764;2022-12-20T21:14:25;18.25;42.27
75964;DHT22;65820;44.726;37.764;2022-12-20T21:15:32;18.26;42.26
75964;DHT22;65820;44.726;37.764;2022-12-20T21:16:39;18.26;42.24
75964;DHT22;65820;44.726;37.764;2022-12-20T21:17:46;18.25;42.39
75964;DHT22;65820;44.726;37.764;2022-12-20T21:18:54;18.26;42.26
75964;DHT22;65820;44.726;37.764;2022-12-20T21:20:01;18.25;42.19
75964;DHT22;65820;44.726;37.764;2022-12-20T21:21:10;18.24;42.33
75964;DHT22;65820;44.726;37.764;2022-12-20T21:22:17;18.25;42.14
75964;DHT22;65820;44.726;37.764;2022-12-20T21:23:23;18.24;42.24
75964;DHT22;65820;44.726;37.764;2022-12-20T21:24:30;18.25;42.33
75964;DHT22;65820;44.726;37.764;2022-12-20T21:25:36;18.26;42.23
75964;DHT22;65820;44.726;37.764;2022-12-20T21:26:43;18.25;42.20
75964;DHT22;65820;44.726;37.764;2022-12-20T21:27:50;18.24;42.18
75964;DHT22;65820;44.726;37.764;2022-12-20T21:28:57;18.24;42.23
75964;DHT22;65820;44.726;37.764;2022-12-20T21:30:04;18.23;42.25
75964;DHT22;65820;44.726;37.764;2022-12-20T21:31:14;18.24;42.24
75964;DHT22;65820;44.726;37.764;2022-12-20T21:32:21;18.24;42.18
75964;DHT22;65820;44.726;37.764;2022-12-20T21:33:28;18.24;42.25
75964;DHT22;65820;44.726;37.764;2022-12-20T21:34:34;18.24;42.22
75964;DHT22;65820;44.726;37.764;2022-12-20T21:35:41;18.24;42.28
75964;DHT22;65820;44.726;37.764;2022-12-20T21:36:47;18.24;42.35
75964;DHT22;65820;44.726;37.764;2022-12-20T21:37:54;18.24;42.23
75964;DHT22;65820;44.726;37.764;2022-12-20T21:39:00;18.24;42.23
75964;DHT22;65820;44.726;37.764;2022-12-20T21:40:07;18.24;42.15
75964;DHT22;65820;44.726;37.764;2022-12-20T21:41:16;18.24;42.19
75964;DHT22;65820;44.726;37.764;2022-12-20T21:42:23;18.24;42.23
75964;DHT22;65820;44.726;37.764;2022-12-20T21:43:30;18.23;42.27
75964;DHT22;65820;44.726;37.764;2022-12-20T21:44:37;18.23;42.30
75964;DHT22;65820;44.726;37.764;2022-12-20T21:45:49;18.23;42.32
75964;DHT22;65820;44.726;37.764;2022-12-20T21:46:55;18.22;42.26
75964;DHT22;65820;44.726;37.764;2022-12-20T21:48:02;18.22;42.23
75964;DHT22;65820;44.726;37.764;2022-12-20T21:49:09;18.23;42.20
75964;DHT22;65820;44.726;37.764;2022-12-20T21:50:16;18.23;42.36
75964;DHT22;65820;44.726;37.764;2022-12-20T21:51:24;18.23;42.26
75964;DHT22;65820;44.726;37.764;2022-12-20T21:52:31;18.23;42.26
75964;DHT22;65820;44.726;37.764;2022-12-20T21:53:52;18.23;42.42
75964;DHT22;65820;44.726;37.764;2022-12-20T21:54:58;18.22;42.30
75964;DHT22;65820;44.726;37.764;2022-12-20T21:56:06;18.22;42.30
75964;DHT22;65820;44.726;37.764;2022-12-20T21:57:13;18.22;42.29
75964;DHT22;65820;44.726;37.764;2022-12-20T21:58:19;18.22;42.35
75964;DHT22;65820;44.726;37.764;2022-12-20T21:59:26;18.23;42.32
75964;DHT22;65820;44.726;37.764;2022-12-20T22:00:34;18.22;42.31
75964;DHT22;65820;44.726;37.764;2022-12-20T22:01:40;18.22;42.30
75964;DHT22;65820;44.726;37.764;2022-12-20T22:02:47;18.22;42.22
75964;DHT22;65820;44.726;37.764;2022-12-20T22:03:58;18.22;42.32
75964;DHT22;65820;44.726;37.764;2022-12-20T22:05:05;18.22;42.45
75964;DHT22;65820;44.726;37.764;2022-12-20T22:06:12;18.21;42.36
75964;DHT22;65820;44.726;37.764;2022-12-20T22:07:18;18.22;42.38
75964;DHT22;65820;44.726;37.764;2022-12-20T22:08:28;18.22;42.29
75964;DHT22;65820;44.726;37.764;2022-12-20T22:09:36;18.21;42.26
75964;DHT22;65820;44.726;37.764;2022-12-20T22:10:43;18.22;42.41
75964;DHT22;65820;44.726;37.764;2022-12-20T22:11:50;18.22;42.28
75964;DHT22;65820;44.726;37.764;2022-12-20T22:12:56;18.21;42.39
75964;DHT22;65820;44.726;37.764;2022-12-20T22:14:04;18.22;42.51
75964;DHT22;65820;44.726;37.764;2022-12-20T22:15:10;18.21;42.34
75964;DHT22;65820;44.726;37.764;2022-12-20T22:16:18;18.21;42.42
75964;DHT22;65820;44.726;37.764;2022-12-20T22:17:28;18.21;42.43
75964;DHT22;65820;44.726;37.764;2022-12-20T22:18:35;18.22;42.41
75964;DHT22;65820;44.726;37.764;2022-12-20T22:19:42;18.22;42.26
75964;DHT22;65820;44.726;37.764;2022-12-20T22:20:49;18.21;42.43
75964;DHT22;65820;44.726;37.764;2022-12-20T22:21:56;18.21;42.47
75964;DHT22;65820;44.726;37.764;2022-12-20T22:23:02;18.21;42.31
75964;DHT22;65820;44.726;37.764;2022-12-20T22:24:11;18.21;42.42
75964;DHT22;65820;44.726;37.764;2022-12-20T22:25:17;18.21;42.38
75964;DHT22;65820;44.726;37.764;2022-12-20T22:26:26;18.20;42.48
75964;DHT22;65820;44.726;37.764;2022-12-20T22:27:33;18.22;42.38
75964;DHT22;65820;44.726;37.764;2022-12-20T22:28:51;18.20;42.41
75964;DHT22;65820;44.726;37.764;2022-12-20T22:29:58;18.21;42.36
75964;DHT22;65820;44.726;37.764;2022-12-20T22:31:09;18.20;42.39
75964;DHT22;65820;44.726;37.764;2022-12-20T22:32:17;18.21;42.42
75964;DHT22;65820;44.726;37.764;2022-12-20T22:33:23;18.21;42.41
75964;DHT22;65820;44.726;37.764;2022-12-20T22:34:30;18.20;42.41
75964;DHT22;65820;44.726;37.764;2022-12-20T22:35:37;18.20;42.54
75964;DHT22;65820;44.726;37.764;2022-12-20T22:36:43;18.20;42.48
75964;DHT22;65820;44.726;37.764;2022-12-20T22:37:50;18.20;42.49
75964;DHT22;65820;44.726;37.764;2022-12-20T22:38:58;18.21;42.58
75964;DHT22;65820;44.726;37.764;2022-12-20T22:40:05;18.21;42.48
75964;DHT22;65820;44.726;37.764;2022-12-20T22:41:14;18.21;42.39
75964;DHT22;65820;44.726;37.764;2022-12-20T22:42:21;18.20;42.40
75964;DHT22;65820;44.726;37.764;2022-12-20T22:43:28;18.18;42.40
75964;DHT22;65820;44.726;37.764;2022-12-20T22:44:34;18.20;42.42
75964;DHT22;65820;44.726;37.764;2022-12-20T22:45:41;18.19;42.55
75964;DHT22;65820;44.726;37.764;2022-12-20T22:46:50;18.19;42.44
75964;DHT22;65820;44.726;37.764;2022-12-20T22:47:57;18.19;42.52
75964;DHT22;65820;44.726;37.764;2022-12-20T22:49:03;18.20;42.59
75964;DHT22;65820;44.726;37.764;2022-12-20T22:50:11;18.20;42.45
75964;DHT22;65820;44.726;37.764;2022-12-20T22:51:21;18.20;42.58
75964;DHT22;65820;44.726;37.764;2022-12-20T22:52:28;18.20;42.58
75964;DHT22;65820;44.726;37.764;2022-12-20T22:53:35;18.19;42.49
75964;DHT22;65820;44.726;37.764;2022-12-20T22:54:42;18.20;42.64
75964;DHT22;65820;44.726;37.764;2022-12-20T22:55:51;18.19;42.46
75964;DHT22;65820;44.726;37.764;2022-12-20T22:56:58;18.19;42.56
75964;DHT22;65820;44.726;37.764;2022-12-20T22:58:06;18.19;42.43
75964;DHT22;65820;44.726;37.764;2022-12-20T22:59:12;18.20;42.61
75964;DHT22;65820;44.726;37.764;2022-12-20T23:00:19;18.19;42.48
75964;DHT22;65820;44.726;37.764;2022-12-20T23:01:26;18.19;42.46
75964;DHT22;65820;44.726;37.764;2022-12-20T23:02:33;18.18;42.51
75964;DHT22;65820;44.726;37.764;2022-12-20T23:03:40;18.19;42.46
75964;DHT22;65820;44.726;37.764;2022-12-20T23:04:47;18.19;42.54
75964;DHT22;65820;44.726;37.764;2022-12-20T23:05:56;18.17;42.52
75964;DHT22;65820;44.726;37.764;2022-12-20T23:07:03;18.17;42.51
75964;DHT22;65820;44.726;37.764;2022-12-20T23:08:10;18.19;42.66
75964;DHT22;65820;44.726;37.764;2022-12-20T23:09:17;18.19;42.58
75964;DHT22;65820;44.726;37.764;2022-12-20T23:10:23;18.17;42.48
75964;DHT22;65820;44.726;37.764;2022-12-20T23:11:49;18.18;42.54
75964;DHT22;65820;44.726;37.764;2022-12-20T23:13:14;18.15;42.52
75964;DHT22;65820;44.726;37.764;2022-12-20T23:14:39;18.18;42.55
75964;DHT22;65820;44.726;37.764;2022-12-20T23:16:04;18.17;42.60
75964;DHT22;65820;44.726;37.764;2022-12-20T23:17:11;18.15;42.61
75964;DHT22;65820;44.726;37.764;2022-12-20T23:18:17;18.17;42.59
75964;DHT22;65820;44.726;37.764;2022-12-20T23:19:24;18.18;42.55
75964;DHT22;65820;44.726;37.764;2022-12-20T23:20:31;18.17;42.59
75964;DHT22;65820;44.726;37.764;2022-12-20T23:21:56;18.17;42.60
75964;DHT22;65820;44.726;37.764;2022-12-20T23:23:21;18.17;42.56
75964;DHT22;65820;44.726;37.764;2022-12-20T23:24:27;18.17;42.61
75964;DHT22;65820;44.726;37.764;2022-12-20T23:25:34;18.15;42.59
75964;DHT22;65820;44.726;37.764;2022-12-20T23:26:42;18.15;42.61
75964;DHT22;65820;44.726;37.764;2022-12-20T23:27:49;18.15;42.70
75964;DHT22;65820;44.726;37.764;2022-12-20T23:28:56;18.15;42.75
75964;DHT22;65820;44.726;37.764;2022-12-20T23:30:05;18.15;42.58
75964;DHT22;65820;44.726;37.764;2022-12-20T23:31:12;18.14;42.64
75964;DHT22;65820;44.726;37.764;2022-12-20T23:32:19;18.14;42.73
75964;DHT22;65820;44.726;37.764;2022-12-20T23:33:28;18.15;42.71
75964;DHT22;65820;44.726;37.764;2022-12-20T23:34:35;18.15;42.68
75964;DHT22;65820;44.726;37.764;2022-12-20T23:35:42;18.15;42.67
75964;DHT22;65820;44.726;37.764;2022-12-20T23:36:48;18.15;42.63
75964;DHT22;65820;44.726;37.764;2022-12-20T23:37:56;18.14;42.68
75964;DHT22;65820;44.726;37.764;2022-12-20T23:39:04;18.17;42.62
75964;DHT22;65820;44.726;37.764;2022-12-20T23:40:13;18.15;42.89
75964;DHT22;65820;44.726;37.764;2022-12-20T23:41:20;18.14;42.71
75964;DHT22;65820;44.726;37.764;2022-12-20T23:42:27;18.15;42.70